首页
METAR-TAF:

METAR-TAF

机场 :

Bella Bella, 不列颠哥伦比亚, 加拿大

纬度: 52-11-06N, 经度: 128-09-24W, 海拔: 43米

当前天气观测

该预报发布于8分钟前的09:38 UTC
风速7节,风向,在南转南东西转西南之间变化
温度 10°C
湿度 93%
气压 1007 hPa
能見度: 11.3公里
散云层高于2000英尺
多云层高于2500英尺
阴天层高于3400英尺
小雨

METAR: CBBC 150938Z AUTO 19007KT 160V250 7SM -RA SCT020 BKN025 OVC034 10/09 A2975 RMK SLP075

时间: 01:46 (09:46 UTC)

预报

该预报发布于9小时和8分钟前的00:38 UTC
预报有效从15日的 01点(UTC)到 15日的 06点(UTC)
风速10节,风向南转南东
能見度: 9.7公里
散云层高于2000英尺
阴天层高于4000英尺
轻雾
短暂存在
从 15日的 01点(UTC)到 15日的 02点(UTC)
能見度: 8.0公里
多云层高于2000英尺
阴天层高于4000英尺
小雨, 轻雾
从 15日的 0200点(UTC)
风速10节,风向,有时为20节阵风
能見度: 9.7公里
散云层高于800英尺
多云层高于2500英尺
阴天层高于4000英尺
小雨
短暂存在
从 15日的 02点(UTC)到 15日的 06点(UTC)
能見度: 3.2公里
多云层高于800英尺
阴天层高于2500英尺
阵雨, 轻雾

TAF: CBBC 150038Z 1501/1506 16010KT 6SM BR SCT020 OVC040 TEMPO 1501/1502 5SM -RA BR BKN020 OVC040 FM150200 19010G20KT 6SM -RA SCT008 BKN025 OVC040 TEMPO 1502/1506 2SM SHRA BR BKN008 OVC025 RMK FCST BASED ON AUTO OBS. NXT FCST WILL BE ISSUED AT 151345Z

超过4000个机场的气象观测和天气预报(METAR&TAF报告)。

可查询的气象台以黄色和红色小点在地图上表示。

将鼠标移到小点上方,可查看气象台名称。

然后点击查看天气观测和预报。

如需切换地图:点击带黑十字的绿色按钮放大地图;点击带横线的绿色按钮缩小地图;或者点击绿色箭头查看邻近地区的地图。


METAR-TAF: